Time;durP1;ratioP1;P1;durP2;ratioP2;P2;SDS_P1;SDS_P2;PMS_P1;PMS_P2;Temp;Humidity;BMP_temperature;BMP_pressure;BME280_temperature;BME280_humidity;BME280_pressure;Samples;Min_cycle;Max_cycle;Signal;HPM_P1;HPM_P2
2021/12/11 00:00:33;;;;;;;2.25;1.42;;;22.20;28.10;;;;;;5037126;28;20025;-53
2021/12/11 00:03:08;;;;;;;1.67;1.23;;;22.20;28.10;;;;;;5048476;28;20039;-49
2021/12/11 00:05:35;;;;;;;2.30;1.30;;;22.20;28.10;;;;;;5042941;28;20033;-53
2021/12/11 00:08:03;;;;;;;1.80;1.25;;;22.20;28.10;;;;;;5043659;28;20391;-48
2021/12/11 00:10:37;;;;;;;2.22;1.48;;;22.20;28.10;;;;;;5037164;28;20025;-48
2021/12/11 00:13:14;;;;;;;2.13;1.42;;;22.20;28.10;;;;;;5055060;28;20108;-52
2021/12/11 00:15:43;;;;;;;4.03;1.70;;;22.20;28.10;;;;;;5056538;28;20028;-51
2021/12/11 00:18:25;;;;;;;3.20;1.40;;;22.20;28.10;;;;;;5055119;28;20336;-51
2021/12/11 00:20:58;;;;;;;2.80;1.45;;;22.20;28.10;;;;;;5056339;28;20037;-53
2021/12/11 00:23:40;;;;;;;2.88;1.63;;;22.20;28.10;;;;;;5047465;28;20029;-49
2021/12/11 00:26:09;;;;;;;2.53;1.55;;;22.10;28.10;;;;;;5056014;28;20439;-52
2021/12/11 00:28:46;;;;;;;2.33;1.42;;;22.10;28.10;;;;;;5040678;28;20025;-47
2021/12/11 00:31:13;;;;;;;1.75;1.10;;;22.10;28.10;;;;;;5036602;28;20445;-52
2021/12/11 00:33:39;;;;;;;1.77;1.33;;;22.10;28.20;;;;;;5049488;28;20037;-50
2021/12/11 00:36:10;;;;;;;2.08;1.30;;;22.00;28.20;;;;;;5056167;28;20063;-52
2021/12/11 00:38:37;;;;;;;1.95;1.27;;;22.00;28.20;;;;;;5053221;28;20033;-46
2021/12/11 00:41:10;;;;;;;2.95;1.58;;;22.00;28.20;;;;;;5056134;28;20141;-52
2021/12/11 00:43:36;;;;;;;2.47;1.38;;;22.00;28.20;;;;;;5053127;28;20021;-48
2021/12/11 00:46:07;;;;;;;4.03;1.88;;;22.00;28.20;;;;;;5055998;28;20100;-50
2021/12/11 00:48:33;;;;;;;2.72;1.60;;;22.00;28.20;;;;;;5053439;28;20033;-51
2021/12/11 00:51:01;;;;;;;3.25;1.40;;;22.00;28.20;;;;;;5055995;28;20055;-53
2021/12/11 00:53:31;;;;;;;1.77;1.38;;;22.00;28.20;;;;;;5054549;28;20025;-48
2021/12/11 00:56:02;;;;;;;2.42;1.45;;;21.90;28.20;;;;;;5054252;28;20045;-49
2021/12/11 00:58:34;;;;;;;2.95;1.48;;;21.90;28.20;;;;;;5055230;28;20072;-49
2021/12/11 01:01:08;;;;;;;2.35;1.60;;;21.90;28.20;;;;;;5053862;28;20440;-47
2021/12/11 01:03:39;;;;;;;2.00;1.50;;;21.90;28.20;;;;;;5054113;28;20029;-48
2021/12/11 01:06:33;;;;;;;2.45;1.58;;;21.90;28.20;;;;;;5049558;28;20112;-46
2021/12/11 01:09:14;;;;;;;2.50;1.70;;;21.90;28.20;;;;;;5051097;28;20069;-50
2021/12/11 01:11:51;;;;;;;2.70;1.83;;;21.90;28.30;;;;;;5054491;28;20100;-49
2021/12/11 01:14:31;;;;;;;2.25;1.40;;;21.90;28.30;;;;;;5052146;28;20025;-48
2021/12/11 01:17:05;;;;;;;2.45;1.50;;;21.80;28.30;;;;;;5042464;28;20025;-53
2021/12/11 01:19:36;;;;;;;4.43;2.03;;;21.80;28.30;;;;;;5036328;28;20042;-50
2021/12/11 01:22:20;;;;;;;2.60;1.88;;;21.80;28.30;;;;;;5054821;28;20048;-49
2021/12/11 01:24:48;;;;;;;1.90;1.40;;;21.80;28.30;;;;;;5037324;28;20025;-48
2021/12/11 01:27:18;;;;;;;2.65;1.70;;;21.80;28.30;;;;;;5035179;28;20437;-48
2021/12/11 01:29:46;;;;;;;3.38;1.70;;;21.80;28.30;;;;;;5038667;28;20070;-49
2021/12/11 01:32:13;;;;;;;2.30;1.70;;;21.80;28.30;;;;;;5054448;28;20333;-53
2021/12/11 01:34:40;;;;;;;2.72;1.63;;;21.70;28.30;;;;;;5054057;28;20383;-53
2021/12/11 01:37:07;;;;;;;2.53;1.98;;;21.70;28.30;;;;;;5055501;28;20017;-49
2021/12/11 01:39:36;;;;;;;3.28;1.80;;;21.80;28.30;;;;;;5053640;28;20025;-50
2021/12/11 01:42:08;;;;;;;2.40;1.45;;;21.80;28.30;;;;;;5035202;28;20049;-52
2021/12/11 01:44:37;;;;;;;1.67;1.50;;;21.70;28.30;;;;;;5041147;28;20072;-47
2021/12/11 01:47:14;;;;;;;3.28;2.20;;;21.70;28.30;;;;;;5055081;28;20090;-53
2021/12/11 01:49:43;;;;;;;2.65;1.52;;;21.70;28.80;;;;;;5053181;28;20021;-52
2021/12/11 01:52:19;;;;;;;2.60;1.75;;;21.70;28.30;;;;;;5053209;28;20044;-54
2021/12/11 01:54:48;;;;;;;2.17;1.60;;;21.70;28.30;;;;;;5036324;28;20025;-50
2021/12/11 01:57:21;;;;;;;2.47;1.70;;;21.70;28.30;;;;;;5037251;28;20140;-47
2021/12/11 01:59:53;;;;;;;2.75;1.63;;;21.70;28.30;;;;;;5054337;28;20045;-52
2021/12/11 02:02:25;;;;;;;2.45;1.77;;;21.70;28.30;;;;;;5051844;28;20043;-49
2021/12/11 02:04:54;;;;;;;3.45;1.85;;;21.70;28.30;;;;;;5042839;28;20029;-53
2021/12/11 02:07:28;;;;;;;2.45;1.60;;;21.60;28.30;;;;;;5034537;28;20051;-49
2021/12/11 02:09:57;;;;;;;3.55;2.00;;;21.70;28.30;;;;;;5051289;28;20036;-54
2021/12/11 02:12:32;;;;;;;3.13;1.60;;;21.60;28.30;;;;;;5050614;28;20036;-51
2021/12/11 02:15:01;;;;;;;1.85;1.52;;;21.60;28.30;;;;;;5042743;28;20039;-50
2021/12/11 02:17:52;;;;;;;1.85;1.38;;;21.60;28.30;;;;;;5053315;28;20041;-52
2021/12/11 02:20:30;;;;;;;3.13;1.80;;;21.60;28.30;;;;;;5036615;28;20028;-52
2021/12/11 02:22:57;;;;;;;2.80;1.88;;;21.60;28.30;;;;;;5038929;28;20029;-46
2021/12/11 02:25:31;;;;;;;2.80;1.75;;;21.60;28.30;;;;;;5046054;28;20040;-53
2021/12/11 02:28:00;;;;;;;;;;;21.60;28.30;;;;;;5039041;28;20025;-52
2021/12/11 02:30:41;;;;;;;2.80;1.70;;;21.50;28.30;;;;;;5051500;28;19905;-48
2021/12/11 02:33:15;;;;;;;3.47;2.15;;;21.60;28.40;;;;;;5050104;28;20424;-51
2021/12/11 02:35:58;;;;;;;;;;;21.50;28.30;;;;;;5055030;28;20107;-53
2021/12/11 02:38:39;;;;;;;3.35;1.70;;;21.50;28.40;;;;;;5047046;28;20351;-52
2021/12/11 02:41:12;;;;;;;2.42;1.98;;;21.50;28.40;;;;;;5037510;28;20040;-54
2021/12/11 02:43:45;;;;;;;2.73;1.60;;;21.50;28.40;;;;;;5054108;28;20083;-49
2021/12/11 02:46:19;;;;;;;3.25;1.65;;;21.50;28.40;;;;;;5048752;28;20280;-53
2021/12/11 02:49:13;;;;;;;2.10;1.70;;;21.50;28.40;;;;;;5034450;28;20441;-53
2021/12/11 02:51:46;;;;;;;3.13;1.80;;;21.50;28.40;;;;;;5043570;28;20033;-51
2021/12/11 02:54:24;;;;;;;2.42;1.80;;;21.40;28.30;;;;;;5053843;28;20141;-51
2021/12/11 02:56:59;;;;;;;3.80;2.17;;;21.50;28.30;;;;;;5045531;28;20102;-48
2021/12/11 02:59:28;;;;;;;2.30;2.00;;;21.40;28.30;;;;;;5053841;28;20045;-49
2021/12/11 03:02:11;;;;;;;3.10;1.88;;;21.40;28.30;;;;;;5053147;28;20041;-49
2021/12/11 03:04:44;;;;;;;2.53;1.60;;;21.40;28.30;;;;;;5053454;28;20021;-51
2021/12/11 03:07:13;;;;;;;2.78;1.88;;;21.40;28.30;;;;;;5053864;28;20439;-49
2021/12/11 03:09:46;;;;;;;2.47;1.70;;;21.40;28.30;;;;;;5052984;28;20478;-47
2021/12/11 03:12:14;;;;;;;2.90;2.00;;;21.40;28.30;;;;;;5053464;28;20032;-47
2021/12/11 03:14:42;;;;;;;2.25;1.65;;;21.40;28.30;;;;;;5053407;28;20118;-53
2021/12/11 03:17:08;;;;;;;2.40;1.90;;;21.40;28.30;;;;;;5053614;28;20031;-48
2021/12/11 03:19:39;;;;;;;3.17;2.10;;;21.40;28.40;;;;;;5052583;28;20025;-52
2021/12/11 03:22:09;;;;;;;2.58;1.90;;;21.40;28.40;;;;;;5053599;28;20128;-47
2021/12/11 03:24:37;;;;;;;2.38;1.80;;;21.40;28.40;;;;;;5053313;28;20041;-51
2021/12/11 03:27:03;;;;;;;2.95;1.98;;;21.40;28.40;;;;;;5052191;28;20021;-48
2021/12/11 03:29:30;;;;;;;2.78;1.75;;;21.40;28.40;;;;;;5050783;28;20332;-47
2021/12/11 03:31:56;;;;;;;3.22;1.83;;;21.40;28.40;;;;;;5057046;28;20060;-50
2021/12/11 03:34:25;;;;;;;3.05;1.80;;;21.40;28.40;;;;;;5044066;28;20025;-52
2021/12/11 03:36:53;;;;;;;3.05;1.70;;;21.40;28.40;;;;;;5054956;28;20302;-48
2021/12/11 03:39:22;;;;;;;2.88;2.08;;;21.40;28.40;;;;;;5044645;28;20029;-50
2021/12/11 03:41:51;;;;;;;3.08;1.65;;;21.40;28.40;;;;;;5054151;28;20077;-52
2021/12/11 03:44:17;;;;;;;3.28;1.90;;;21.40;28.30;;;;;;5044834;28;20306;-48
2021/12/11 03:46:51;;;;;;;2.53;1.58;;;21.30;28.30;;;;;;5052634;28;20044;-54
2021/12/11 03:49:20;;;;;;;2.72;2.33;;;21.40;28.30;;;;;;5056158;28;20037;-54
2021/12/11 03:51:48;;;;;;;4.78;1.90;;;21.30;28.30;;;;;;5046298;28;20040;-50
2021/12/11 03:54:19;;;;;;;2.03;1.65;;;21.30;28.30;;;;;;5038387;28;20025;-48
2021/12/11 03:56:45;;;;;;;3.38;2.13;;;21.30;28.30;;;;;;5046257;28;20025;-48
2021/12/11 03:59:13;;;;;;;2.75;1.90;;;21.30;28.30;;;;;;5040591;28;20124;-49
2021/12/11 04:01:48;;;;;;;2.53;1.65;;;21.30;28.30;;;;;;5039428;28;20037;-51
2021/12/11 04:04:19;;;;;;;3.33;2.30;;;21.20;28.20;;;;;;5041866;28;20038;-49
2021/12/11 04:06:45;;;;;;;2.28;1.75;;;21.30;28.30;;;;;;5056852;28;20439;-49
2021/12/11 04:09:15;;;;;;;2.33;1.52;;;21.30;28.30;;;;;;5053254;28;20463;-51
2021/12/11 04:11:41;;;;;;;3.45;1.95;;;21.20;28.20;;;;;;5045245;28;20048;-50
2021/12/11 04:14:11;;;;;;;2.70;1.42;;;21.20;28.20;;;;;;5054502;28;20025;-47
2021/12/11 04:16:38;;;;;;;2.65;1.73;;;21.20;28.20;;;;;;5045053;28;20024;-49
2021/12/11 04:19:06;;;;;;;2.58;1.88;;;21.20;28.20;;;;;;5054992;28;20039;-51
2021/12/11 04:21:33;;;;;;;2.97;2.00;;;21.20;28.20;;;;;;5036720;28;20085;-50
2021/12/11 04:24:00;;;;;;;2.90;1.63;;;21.20;28.20;;;;;;5056170;28;20036;-51
2021/12/11 04:26:27;;;;;;;2.40;1.63;;;21.20;28.20;;;;;;5056268;28;20377;-52
2021/12/11 04:28:53;;;;;;;1.52;1.27;;;21.20;28.20;;;;;;5046604;28;20321;-48
2021/12/11 04:31:23;;;;;;;3.42;1.63;;;21.20;28.20;;;;;;5036166;28;20056;-47
2021/12/11 04:33:52;;;;;;;2.05;1.60;;;21.20;28.20;;;;;;5055760;28;20040;-51
2021/12/11 04:36:24;;;;;;;3.22;1.80;;;21.20;28.20;;;;;;5055626;28;20029;-52
2021/12/11 04:38:51;;;;;;;2.85;1.77;;;21.20;28.30;;;;;;5055547;28;20020;-52
2021/12/11 04:41:23;;;;;;;2.70;1.80;;;21.20;28.30;;;;;;5047400;28;20040;-51
2021/12/11 04:43:51;;;;;;;3.53;1.92;;;21.20;28.30;;;;;;5055556;28;20312;-55
2021/12/11 04:46:17;;;;;;;1.88;1.50;;;21.20;28.30;;;;;;5022827;28;20095;-53
2021/12/11 04:51:25;;;;;;;3.28;1.90;;;21.20;28.30;;;;;;5055530;28;20490;-51
2021/12/11 05:10:12;;;;;;;2.38;1.90;;;21.10;28.50;;;;;;5055479;28;20375;-51
2021/12/11 05:12:38;;;;;;;2.78;1.85;;;21.10;28.40;;;;;;5054278;28;20078;-50
2021/12/11 05:15:14;;;;;;;2.45;2.00;;;21.10;28.40;;;;;;5055258;28;20017;-50
2021/12/11 05:17:41;;;;;;;2.58;1.70;;;21.10;28.40;;;;;;5054017;28;20432;-53
2021/12/11 05:20:09;;;;;;;2.28;1.67;;;21.10;28.40;;;;;;5040393;28;20071;-52
2021/12/11 05:22:36;;;;;;;2.13;1.70;;;21.10;28.40;;;;;;5040036;28;20040;-51
2021/12/11 05:25:04;;;;;;;3.88;2.28;;;21.10;28.40;;;;;;5035345;28;20487;-51
2021/12/11 05:27:31;;;;;;;2.83;2.10;;;21.10;28.40;;;;;;5050082;28;20026;-53
2021/12/11 05:29:57;;;;;;;2.22;1.67;;;21.00;28.40;;;;;;5053787;28;20025;-54
2021/12/11 05:32:25;;;;;;;2.58;1.73;;;21.00;28.40;;;;;;5053802;28;20032;-50
2021/12/11 05:34:52;;;;;;;2.67;2.03;;;21.00;28.40;;;;;;5054607;28;20056;-48
2021/12/11 05:37:19;;;;;;;2.53;1.75;;;21.00;28.40;;;;;;5052133;28;20701;-48
2021/12/11 05:39:46;;;;;;;2.35;1.70;;;21.00;28.50;;;;;;5051203;28;20039;-50
2021/12/11 05:42:13;;;;;;;2.72;2.00;;;21.00;28.50;;;;;;5054043;28;20471;-50
2021/12/11 05:44:40;;;;;;;2.40;1.70;;;21.00;28.50;;;;;;5054683;28;20040;-52
2021/12/11 05:47:06;;;;;;;2.00;1.58;;;21.00;28.50;;;;;;5053125;28;20059;-50
2021/12/11 05:49:33;;;;;;;2.78;2.08;;;21.00;28.50;;;;;;5053903;28;20046;-47
2021/12/11 05:52:04;;;;;;;2.70;2.05;;;21.00;28.50;;;;;;5047578;28;20060;-50
2021/12/11 05:54:29;;;;;;;3.45;2.00;;;21.00;28.50;;;;;;5048674;28;20033;-56
2021/12/11 05:57:02;;;;;;;3.05;1.88;;;21.00;28.60;;;;;;5053198;28;20043;-50
2021/12/11 05:59:29;;;;;;;3.03;1.98;;;21.00;28.60;;;;;;5044688;28;20045;-52
2021/12/11 06:02:06;;;;;;;3.10;1.92;;;21.00;28.60;;;;;;5034313;28;20069;-49
2021/12/11 06:04:39;;;;;;;2.50;1.77;;;21.00;28.60;;;;;;5047368;28;20332;-52
2021/12/11 06:07:10;;;;;;;3.03;2.17;;;21.00;28.70;;;;;;5032616;28;20025;-51
2021/12/11 06:09:37;;;;;;;2.38;1.92;;;21.00;28.70;;;;;;5048765;28;20424;-47
2021/12/11 06:12:08;;;;;;;2.20;1.80;;;21.00;28.70;;;;;;5042470;28;20024;-49
2021/12/11 06:14:35;;;;;;;2.90;2.10;;;21.00;28.70;;;;;;5054346;28;20026;-53
2021/12/11 06:17:05;;;;;;;3.65;2.00;;;21.00;28.70;;;;;;5053122;28;20025;-53
2021/12/11 06:19:31;;;;;;;2.92;1.95;;;21.00;28.70;;;;;;5054296;28;20470;-55
2021/12/11 06:21:58;;;;;;;3.67;2.22;;;20.90;28.70;;;;;;5053020;28;20499;-47
2021/12/11 06:24:26;;;;;;;2.80;2.00;;;20.90;28.70;;;;;;5035038;28;20040;-49
2021/12/11 06:26:52;;;;;;;2.95;2.08;;;20.90;28.80;;;;;;5035898;28;20026;-51
2021/12/11 06:29:18;;;;;;;2.33;2.03;;;20.90;28.80;;;;;;5050949;28;20120;-50
2021/12/11 06:31:45;;;;;;;2.83;2.22;;;20.90;28.80;;;;;;5053984;28;20069;-50
2021/12/11 06:34:12;;;;;;;3.25;2.40;;;20.90;28.80;;;;;;5036475;28;20025;-55
2021/12/11 06:36:39;;;;;;;3.28;2.40;;;20.90;28.80;;;;;;5047835;28;20033;-53
2021/12/11 06:39:08;;;;;;;3.28;2.38;;;20.90;28.80;;;;;;5037228;28;20044;-54
2021/12/11 06:41:38;;;;;;;3.58;2.40;;;20.90;28.90;;;;;;5047456;28;20071;-50
2021/12/11 06:44:05;;;;;;;2.63;1.85;;;20.90;28.90;;;;;;5035388;28;20091;-51
2021/12/11 06:46:33;;;;;;;4.40;2.22;;;20.90;28.90;;;;;;5047147;28;20094;-50
2021/12/11 06:48:59;;;;;;;2.85;2.20;;;20.90;28.90;;;;;;5053225;28;20067;-47
2021/12/11 06:51:26;;;;;;;4.75;2.30;;;20.90;28.90;;;;;;5054629;28;20099;-47
2021/12/11 06:54:00;;;;;;;3.08;1.98;;;20.90;28.90;;;;;;5053047;28;20017;-52
2021/12/11 06:56:27;;;;;;;2.88;2.28;;;20.90;28.90;;;;;;5055085;28;20044;-50
2021/12/11 06:58:54;;;;;;;3.30;2.13;;;20.90;28.90;;;;;;5053118;28;20124;-49
2021/12/11 07:01:21;;;;;;;3.30;2.30;;;20.90;28.90;;;;;;5043756;28;20048;-48
2021/12/11 07:03:47;;;;;;;3.05;2.13;;;20.80;28.90;;;;;;5038154;28;20122;-54
2021/12/11 07:06:15;;;;;;;2.67;2.10;;;20.80;29.10;;;;;;5042593;28;20386;-48
2021/12/11 07:08:41;;;;;;;2.60;1.88;;;20.80;28.90;;;;;;5037880;28;20021;-52
2021/12/11 07:11:09;;;;;;;4.28;2.28;;;20.80;29.00;;;;;;5041265;28;20025;-53
2021/12/11 07:13:35;;;;;;;3.35;2.20;;;20.80;29.00;;;;;;5056505;28;20025;-48
2021/12/11 07:16:01;;;;;;;3.17;2.03;;;20.80;29.50;;;;;;5056060;28;20032;-47
2021/12/11 07:18:31;;;;;;;3.00;2.28;;;20.80;29.00;;;;;;5057350;28;20101;-46
2021/12/11 07:20:58;;;;;;;3.70;2.50;;;20.80;29.00;;;;;;5049513;28;20040;-47
2021/12/11 07:23:24;;;;;;;3.67;2.42;;;20.80;29.10;;;;;;5038499;28;20104;-51
2021/12/11 07:26:16;;;;;;;2.83;2.20;;;20.80;29.10;;;;;;5052663;28;20021;-47
2021/12/11 07:28:49;;;;;;;3.65;2.20;;;20.80;29.00;;;;;;5040081;28;20329;-49
2021/12/11 07:31:15;;;;;;;2.88;2.20;;;20.80;29.10;;;;;;5056171;28;20025;-52
2021/12/11 07:33:41;;;;;;;3.90;2.15;;;20.80;29.10;;;;;;5057619;28;20029;-54
2021/12/11 07:36:08;;;;;;;2.53;1.80;;;20.80;29.10;;;;;;5048717;28;20028;-49
2021/12/11 07:38:34;;;;;;;3.33;2.25;;;20.80;29.10;;;;;;5037525;28;20018;-50
2021/12/11 07:41:03;;;;;;;3.47;2.08;;;20.80;29.10;;;;;;5047505;28;20060;-48
2021/12/11 07:43:29;;;;;;;3.67;2.20;;;20.80;29.10;;;;;;5039797;28;20121;-45
2021/12/11 07:45:57;;;;;;;3.00;2.17;;;20.80;29.20;;;;;;5050105;28;20108;-47
2021/12/11 07:48:23;;;;;;;3.28;2.25;;;20.80;29.20;;;;;;5038934;28;20033;-55
2021/12/11 07:50:49;;;;;;;2.67;2.00;;;20.80;29.20;;;;;;5052405;28;20335;-53
2021/12/11 07:53:17;;;;;;;2.63;2.10;;;20.80;29.20;;;;;;5054688;28;20021;-54
2021/12/11 07:55:43;;;;;;;3.40;2.10;;;20.80;29.30;;;;;;5054714;28;20052;-49
2021/12/11 07:58:09;;;;;;;3.42;2.55;;;20.80;29.30;;;;;;5040018;28;20084;-53
2021/12/11 08:00:38;;;;;;;2.90;2.03;;;20.90;29.40;;;;;;5045268;28;20036;-52
2021/12/11 08:03:06;;;;;;;2.70;2.20;;;20.90;29.40;;;;;;5052778;28;20103;-48
2021/12/11 08:05:33;;;;;;;3.20;2.40;;;21.00;29.40;;;;;;5056280;28;20113;-50
2021/12/11 08:08:02;;;;;;;4.28;2.40;;;21.10;29.50;;;;;;5049756;28;20037;-48
2021/12/11 08:10:30;;;;;;;2.70;2.08;;;21.20;29.50;;;;;;5043187;28;20040;-50
2021/12/11 08:12:59;;;;;;;2.80;1.70;;;21.30;29.40;;;;;;5047296;28;20124;-56
2021/12/11 08:15:26;;;;;;;3.13;1.90;;;21.40;29.40;;;;;;5042797;28;20049;-51
2021/12/11 08:17:54;;;;;;;3.38;2.38;;;21.50;29.30;;;;;;5025747;28;20467;-48
2021/12/11 08:20:24;;;;;;;3.80;2.35;;;21.60;29.20;;;;;;5026224;28;20047;-52
2021/12/11 08:22:51;;;;;;;2.60;2.10;;;21.70;29.20;;;;;;5055791;28;20479;-49
2021/12/11 08:25:19;;;;;;;2.33;1.73;;;21.80;29.10;;;;;;5050887;28;20043;-49
2021/12/11 08:27:45;;;;;;;3.28;2.00;;;21.90;29.00;;;;;;5043037;28;20021;-47
2021/12/11 08:30:11;;;;;;;4.35;2.25;;;22.00;28.90;;;;;;5055961;28;20036;-48
2021/12/11 08:32:38;;;;;;;3.22;1.90;;;22.10;28.90;;;;;;5055750;28;20033;-48
2021/12/11 08:35:07;;;;;;;3.33;2.28;;;22.20;28.80;;;;;;5036229;28;20021;-49
2021/12/11 08:37:35;;;;;;;2.53;1.80;;;22.30;28.80;;;;;;5048340;28;20446;-52
2021/12/11 08:40:01;;;;;;;4.00;1.95;;;22.40;28.80;;;;;;5055170;28;20064;-48
2021/12/11 08:42:27;;;;;;;4.82;1.92;;;22.50;28.70;;;;;;5043826;28;20061;-51
2021/12/11 08:45:04;;;;;;;2.60;1.88;;;22.50;28.70;;;;;;5036880;28;20020;-52
2021/12/11 08:47:30;;;;;;;4.00;2.05;;;22.60;28.70;;;;;;5054728;28;20384;-55
2021/12/11 08:49:56;;;;;;;3.00;2.17;;;22.70;28.70;;;;;;5055661;28;20028;-53
2021/12/11 08:52:28;;;;;;;2.80;2.13;;;22.80;28.70;;;;;;5050427;28;20052;-49
2021/12/11 08:54:55;;;;;;;2.70;2.05;;;22.80;28.60;;;;;;5050816;28;20039;-52
2021/12/11 08:57:26;;;;;;;3.00;1.98;;;22.90;28.60;;;;;;5039196;28;20433;-52
2021/12/11 08:59:56;;;;;;;2.97;2.00;;;23.00;28.50;;;;;;5039998;28;20394;-52
2021/12/11 09:02:28;;;;;;;2.38;1.80;;;23.00;28.40;;;;;;5054704;28;20051;-52
2021/12/11 09:05:30;;;;;;;2.33;1.95;;;23.10;28.40;;;;;;5043014;28;20079;-50
2021/12/11 09:08:12;;;;;;;2.80;2.03;;;23.20;28.40;;;;;;5024238;28;20321;-49
2021/12/11 09:11:06;;;;;;;2.63;1.95;;;23.20;28.30;;;;;;5053702;28;20035;-50
2021/12/11 09:13:46;;;;;;;2.80;2.08;;;23.30;28.30;;;;;;5035467;28;20053;-54
2021/12/11 09:16:42;;;;;;;2.40;1.70;;;23.40;28.30;;;;;;5049248;28;20029;-53
2021/12/11 09:19:17;;;;;;;2.25;1.88;;;23.40;28.20;;;;;;5053918;28;20032;-54
2021/12/11 09:21:58;;;;;;;2.65;2.05;;;23.50;28.20;;;;;;5050677;28;20039;-51
2021/12/11 09:24:50;;;;;;;2.30;2.00;;;23.50;28.20;;;;;;5053353;28;20123;-49
2021/12/11 09:27:29;;;;;;;2.35;2.10;;;23.60;28.10;;;;;;5036965;28;20039;-55
2021/12/11 09:30:08;;;;;;;1.92;1.50;;;23.60;28.10;;;;;;5045185;28;20033;-49
2021/12/11 09:32:52;;;;;;;2.40;1.83;;;23.70;28.10;;;;;;5040764;28;20037;-48
2021/12/11 09:35:27;;;;;;;3.22;2.08;;;23.80;28.10;;;;;;5045071;28;20040;-53
2021/12/11 09:37:59;;;;;;;3.08;2.17;;;23.80;28.10;;;;;;5034903;28;20040;-50
2021/12/11 09:40:37;;;;;;;3.45;2.15;;;23.80;28.10;;;;;;5049689;28;20024;-53
2021/12/11 09:43:03;;;;;;;3.05;2.10;;;23.90;28.10;;;;;;5052293;28;20159;-54
2021/12/11 09:45:36;;;;;;;2.10;1.90;;;23.90;28.20;;;;;;5048810;28;20112;-49
2021/12/11 09:48:08;;;;;;;2.13;1.67;;;23.90;28.20;;;;;;5037613;28;20123;-50
2021/12/11 09:50:45;;;;;;;2.72;2.05;;;23.90;28.30;;;;;;5045804;28;20147;-52
2021/12/11 09:53:15;;;;;;;2.28;1.83;;;24.00;28.40;;;;;;5049753;28;20128;-49
2021/12/11 09:55:41;;;;;;;2.38;1.83;;;24.00;28.40;;;;;;5049616;28;20208;-52
2021/12/11 09:58:11;;;;;;;1.90;1.58;;;24.00;28.40;;;;;;5047421;28;20134;-59
2021/12/11 10:00:46;;;;;;;5.50;2.00;;;24.10;28.50;;;;;;5036198;28;20036;-56
2021/12/11 10:03:16;;;;;;;4.35;1.88;;;24.00;28.50;;;;;;5039279;28;20076;-54
2021/12/11 10:05:55;;;;;;;2.47;1.88;;;24.00;28.60;;;;;;5035689;28;20051;-52
2021/12/11 10:08:37;;;;;;;1.80;1.50;;;24.00;28.60;;;;;;5037153;28;20029;-49
2021/12/11 10:11:30;;;;;;;2.35;2.10;;;24.00;28.60;;;;;;5038914;28;20025;-53
2021/12/11 10:14:10;;;;;;;3.17;1.77;;;24.00;28.50;;;;;;5043697;28;20040;-51
2021/12/11 10:16:44;;;;;;;1.92;1.55;;;23.90;28.60;;;;;;5048514;28;20037;-49
2021/12/11 10:19:13;;;;;;;2.15;1.63;;;23.90;28.60;;;;;;5047818;28;20393;-52
2021/12/11 10:21:49;;;;;;;2.78;1.83;;;23.90;28.70;;;;;;5038825;28;20040;-51
2021/12/11 10:24:19;;;;;;;2.20;2.00;;;23.90;28.60;;;;;;5042825;28;20036;-48
2021/12/11 10:26:45;;;;;;;2.65;1.90;;;23.80;28.60;;;;;;5036804;28;20336;-51
2021/12/11 10:29:12;;;;;;;2.65;2.00;;;23.80;28.60;;;;;;5048082;28;20025;-50
2021/12/11 10:32:00;;;;;;;2.30;1.98;;;23.70;28.60;;;;;;5045846;28;20025;-49
2021/12/11 10:34:30;;;;;;;2.83;1.70;;;23.70;28.60;;;;;;5047313;28;20056;-52
2021/12/11 10:37:05;;;;;;;2.10;1.90;;;23.60;28.60;;;;;;5047911;28;20135;-48
2021/12/11 10:39:31;;;;;;;1.58;1.48;;;23.60;28.60;;;;;;5044902;28;20186;-50
2021/12/11 10:41:58;;;;;;;2.28;1.90;;;23.60;28.70;;;;;;5031670;28;20111;-53
2021/12/11 10:44:38;;;;;;;2.50;2.05;;;23.60;28.70;;;;;;5046548;28;20021;-59
2021/12/11 10:47:11;;;;;;;2.30;2.10;;;23.60;28.80;;;;;;5039959;28;20328;-59
2021/12/11 10:49:38;;;;;;;2.40;2.10;;;23.60;29.00;;;;;;5042814;28;20109;-51
2021/12/11 10:52:18;;;;;;;2.42;1.85;;;23.50;29.00;;;;;;5043714;28;20317;-54
2021/12/11 10:54:45;;;;;;;3.00;1.58;;;23.50;29.10;;;;;;5041614;28;20436;-59
2021/12/11 10:57:12;;;;;;;3.33;1.50;;;23.50;29.10;;;;;;5039898;28;20022;-50
2021/12/11 10:59:40;;;;;;;1.92;1.75;;;23.50;29.20;;;;;;5037697;28;20041;-54
2021/12/11 11:02:11;;;;;;;2.25;1.95;;;23.50;29.20;;;;;;5042603;28;20039;-56
2021/12/11 11:04:48;;;;;;;2.35;1.98;;;23.50;29.20;;;;;;5037537;28;20033;-50
2021/12/11 11:07:14;;;;;;;2.05;1.73;;;23.50;29.20;;;;;;5043200;28;20024;-57
2021/12/11 11:09:41;;;;;;;2.55;1.67;;;23.40;29.20;;;;;;5045198;28;20016;-59
2021/12/11 11:12:20;;;;;;;1.80;1.58;;;23.40;29.20;;;;;;5042019;28;20017;-53
2021/12/11 11:14:48;;;;;;;1.98;1.77;;;23.40;29.30;;;;;;5050010;28;20028;-54
2021/12/11 11:17:18;;;;;;;2.35;2.15;;;23.30;29.20;;;;;;5050078;28;20025;-55
2021/12/11 11:19:47;;;;;;;3.00;1.90;;;23.30;29.30;;;;;;5038564;28;20280;-54
2021/12/11 11:22:17;;;;;;;3.55;1.88;;;23.30;29.40;;;;;;5038074;28;20115;-48
2021/12/11 11:24:47;;;;;;;2.10;1.90;;;23.30;29.50;;;;;;5051675;28;20017;-53
2021/12/11 11:27:13;;;;;;;1.63;1.50;;;23.30;29.50;;;;;;5049655;28;20095;-56
2021/12/11 11:29:42;;;;;;;1.80;1.70;;;23.30;29.60;;;;;;5039693;28;20041;-56
2021/12/11 11:32:12;;;;;;;1.70;1.60;;;23.30;29.60;;;;;;5046363;28;20049;-48
2021/12/11 11:34:40;;;;;;;2.00;1.70;;;23.30;29.60;;;;;;5054952;28;20025;-57
2021/12/11 11:37:09;;;;;;;1.60;1.48;;;23.30;29.70;;;;;;5038827;28;20026;-53
2021/12/11 11:39:37;;;;;;;2.05;1.55;;;23.30;30.20;;;;;;5037458;28;20044;-54
2021/12/11 11:42:08;;;;;;;1.77;1.60;;;23.30;29.80;;;;;;5039192;28;20028;-49
2021/12/11 11:44:34;;;;;;;1.77;1.52;;;23.30;29.80;;;;;;5040115;28;20013;-58
2021/12/11 11:47:02;;;;;;;2.00;1.48;;;23.30;29.90;;;;;;5036315;28;20055;-55
2021/12/11 11:49:29;;;;;;;1.77;1.50;;;23.20;29.90;;;;;;5037347;28;20048;-53
2021/12/11 11:52:05;;;;;;;1.50;1.27;;;23.20;29.90;;;;;;5038876;28;20021;-51
2021/12/11 11:54:31;;;;;;;1.83;1.63;;;23.30;30.00;;;;;;5044672;28;20037;-53
2021/12/11 11:57:08;;;;;;;1.50;1.25;;;23.20;30.00;;;;;;5041045;28;20039;-55
2021/12/11 11:59:35;;;;;;;1.58;1.48;;;23.20;30.00;;;;;;5037290;28;20041;-50
2021/12/11 12:02:04;;;;;;;1.25;1.15;;;23.20;30.00;;;;;;5039682;28;20421;-53
2021/12/11 12:04:36;;;;;;;1.80;1.52;;;23.20;30.00;;;;;;5038770;28;20339;-54
2021/12/11 12:07:05;;;;;;;1.48;1.38;;;23.20;30.10;;;;;;5039986;28;20041;-56
2021/12/11 12:09:38;;;;;;;1.45;1.35;;;23.20;30.10;;;;;;5048107;28;20029;-54
2021/12/11 12:12:05;;;;;;;1.67;1.30;;;23.20;30.20;;;;;;5045346;28;20026;-56
2021/12/11 12:14:33;;;;;;;3.70;1.15;;;23.20;30.20;;;;;;5045477;28;20040;-53
2021/12/11 12:17:00;;;;;;;1.48;1.38;;;23.20;30.20;;;;;;5046924;28;20447;-47
2021/12/11 12:19:27;;;;;;;1.60;1.35;;;23.20;30.20;;;;;;5049038;28;20133;-53
2021/12/11 12:21:58;;;;;;;1.50;1.27;;;23.30;30.30;;;;;;5043061;28;20029;-51
2021/12/11 12:24:27;;;;;;;1.50;1.40;;;23.30;30.30;;;;;;5041812;28;20040;-46
2021/12/11 12:26:54;;;;;;;1.50;1.40;;;23.30;30.20;;;;;;5039444;28;20146;-49
2021/12/11 12:29:21;;;;;;;1.38;1.20;;;23.30;30.10;;;;;;5045641;28;20526;-52
2021/12/11 12:31:52;;;;;;;1.40;1.25;;;23.40;30.10;;;;;;5051734;28;20052;-51
2021/12/11 12:34:20;;;;;;;1.23;1.13;;;23.50;30.10;;;;;;5041140;28;20467;-49
2021/12/11 12:36:46;;;;;;;1.30;1.20;;;23.50;30.00;;;;;;5042502;28;20048;-51
2021/12/11 12:39:16;;;;;;;1.23;1.13;;;23.60;30.00;;;;;;5028032;28;20495;-48
2021/12/11 12:41:53;;;;;;;1.40;1.30;;;23.60;30.00;;;;;;5040273;28;20108;-49
2021/12/11 12:44:22;;;;;;;1.20;1.10;;;23.60;29.90;;;;;;5047066;28;20415;-55
2021/12/11 12:47:01;;;;;;;2.35;1.25;;;23.60;29.90;;;;;;5045522;28;20025;-47
2021/12/11 12:49:30;;;;;;;1.33;1.00;;;23.60;30.00;;;;;;5026914;28;20025;-46
2021/12/11 12:52:03;;;;;;;3.92;1.02;;;23.70;30.00;;;;;;5041416;28;20037;-51
2021/12/11 12:54:31;;;;;;;1.60;1.20;;;23.70;30.20;;;;;;5048736;28;20125;-49
2021/12/11 12:57:11;;;;;;;1.20;1.10;;;23.80;30.30;;;;;;5053800;28;20456;-49
2021/12/11 12:59:44;;;;;;;1.35;1.13;;;23.80;30.30;;;;;;5053495;28;20041;-50
2021/12/11 13:02:17;;;;;;;1.42;1.15;;;23.80;30.20;;;;;;5054531;28;20108;-50
2021/12/11 13:04:48;;;;;;;1.30;1.05;;;23.80;30.10;;;;;;5054319;28;20478;-46
2021/12/11 13:07:17;;;;;;;1.08;0.93;;;23.90;30.10;;;;;;5049345;28;20368;-56
2021/12/11 13:09:57;;;;;;;1.27;1.10;;;23.90;30.10;;;;;;5052023;28;20031;-49
2021/12/11 13:12:32;;;;;;;1.20;1.10;;;23.90;30.10;;;;;;5052893;28;20049;-50
2021/12/11 13:15:05;;;;;;;1.35;1.20;;;23.90;30.20;;;;;;5050172;28;20063;-53
2021/12/11 13:17:45;;;;;;;1.63;1.20;;;23.90;30.20;;;;;;5049445;28;20083;-54
2021/12/11 13:20:23;;;;;;;2.17;1.48;;;23.90;30.30;;;;;;5054725;28;20025;-51
2021/12/11 13:22:51;;;;;;;1.60;1.50;;;23.90;30.30;;;;;;5035940;28;20340;-62
2021/12/11 13:25:25;;;;;;;1.73;1.60;;;23.90;30.30;;;;;;5056350;28;20024;-59